St John, Virgin Islands
Current Conditions -  °F | °C
As of 2:00 PM on Monday 24 Nov 2014 (Local Time) from TUPJ Reporting Station
Scattered Clouds Scattered Clouds  
Wind Chill: 79°   Ceiling: Unl
Heat Index: 82°   Visibility: 6mi
Dew Point: 75°   Wind: 16mph
Humidity: 89%   Direction: 110°ESE
Pressure: 30"   Gusts: NA
Location:  18.3333°N, 64.7943°W
Report Text: TUPJ 241800Z 11014KT 9999 SCT019 SCT035 26/24 Q1016 RMK A3002
Loading
Personal Weather Stations






























Interactive Weather Map New forecast layout! Learn more

10-Day Weather Forecast

Advertisements
Track Severe Weather on mobile